createdAt,value
2022-11-05T00:02:48.016Z,94626.41
2022-11-05T00:06:29.847Z,94629.56
2022-11-05T00:09:38.334Z,94628.97
2022-11-05T00:13:04.275Z,94629.00
2022-11-05T00:16:35.572Z,94626.84
2022-11-05T00:19:43.920Z,94625.66
2022-11-05T00:23:16.076Z,94640.78
2022-11-05T00:26:24.244Z,94636.81
2022-11-05T00:29:32.742Z,94636.47
2022-11-05T00:32:41.506Z,94639.44
2022-11-05T00:35:49.695Z,94635.16
2022-11-05T00:38:59.318Z,94638.94
2022-11-05T00:42:25.138Z,94647.38
2022-11-05T00:45:33.776Z,94647.00
2022-11-05T00:48:59.724Z,94647.38
2022-11-05T00:52:21.801Z,94654.47
2022-11-05T00:55:38.100Z,94652.97
2022-11-05T00:58:46.310Z,94657.75
2022-11-05T01:01:54.619Z,94664.31
2022-11-05T01:05:03.127Z,94660.91
2022-11-05T01:08:12.339Z,94666.50
2022-11-05T01:11:34.051Z,94667.50
2022-11-05T01:14:42.475Z,94665.53
2022-11-05T01:17:52.757Z,94685.31
2022-11-05T01:21:01.016Z,94697.47
2022-11-05T01:24:11.818Z,94690.34
2022-11-05T01:27:21.502Z,94687.38
2022-11-05T01:30:30.041Z,94681.88
2022-11-05T01:33:38.606Z,94686.66
2022-11-05T01:36:47.049Z,94687.97
2022-11-05T01:39:55.299Z,94688.97
2022-11-05T01:43:15.648Z,94691.59
2022-11-05T01:46:30.553Z,94692.25
2022-11-05T01:49:39.147Z,94693.41
2022-11-05T01:52:51.011Z,94688.59
2022-11-05T01:56:04.967Z,94692.56
2022-11-05T01:59:19.995Z,94682.00
2022-11-05T02:02:29.468Z,94695.63
2022-11-05T02:05:40.755Z,94695.91
2022-11-05T02:08:59.740Z,94687.81
2022-11-05T02:12:10.052Z,94693.09
2022-11-05T02:15:36.343Z,94703.75
2022-11-05T02:18:58.456Z,94702.38
2022-11-05T02:22:53.478Z,94704.31
2022-11-05T02:26:46.061Z,94702.75
2022-11-05T02:30:33.403Z,94688.34
2022-11-05T02:33:57.675Z,94692.63
2022-11-05T02:37:16.397Z,94698.69
2022-11-05T02:40:33.695Z,94696.94
2022-11-05T02:43:57.425Z,94690.44
2022-11-05T02:47:18.460Z,94698.44
2022-11-05T02:50:36.185Z,94711.25
2022-11-05T02:53:52.653Z,94709.31
2022-11-05T02:57:03.571Z,94721.53
2022-11-05T03:00:51.803Z,94722.34
2022-11-05T03:09:52.373Z,94733.69
2022-11-05T03:13:15.252Z,94736.78
2022-11-05T03:16:36.025Z,94738.91
2022-11-05T03:19:54.743Z,94751.72
2022-11-05T03:23:14.391Z,94758.97
2022-11-05T03:26:33.113Z,94764.19
2022-11-05T03:29:48.657Z,94767.31
2022-11-05T03:33:03.244Z,94765.03
2022-11-05T03:36:20.276Z,94775.44
2022-11-05T03:39:35.051Z,94779.34
2022-11-05T03:42:50.460Z,94783.63
2022-11-05T03:46:04.100Z,94784.53
2022-11-05T03:49:20.045Z,94794.75
2022-11-05T03:52:36.814Z,94800.16
2022-11-05T03:55:53.820Z,94802.63
2022-11-05T03:59:06.025Z,94803.91
2022-11-05T04:02:16.835Z,94809.19
2022-11-05T04:05:25.200Z,94804.00
2022-11-05T04:08:51.131Z,94805.28
2022-11-05T04:12:16.950Z,94799.88
2022-11-05T04:15:26.920Z,94797.28
2022-11-05T04:18:34.277Z,94802.09
2022-11-05T04:22:00.124Z,94804.03
2022-11-05T04:25:09.117Z,94809.28
2022-11-05T04:28:17.543Z,94804.97
2022-11-05T04:31:26.149Z,94811.88
2022-11-05T04:34:34.440Z,94804.25
2022-11-05T04:37:42.692Z,94805.22
2022-11-05T04:40:50.910Z,94810.34
2022-11-05T04:43:59.147Z,94813.81
2022-11-05T04:47:08.752Z,94814.09
2022-11-05T04:50:17.298Z,94820.25
2022-11-05T04:53:25.530Z,94824.91
2022-11-05T04:56:33.897Z,94831.31
2022-11-05T04:59:42.177Z,94838.66
2022-11-05T05:02:52.030Z,94837.88
2022-11-05T05:06:03.729Z,94837.88
2022-11-05T05:09:12.425Z,94842.13
2022-11-05T05:12:20.649Z,94839.47
2022-11-05T05:15:29.078Z,94842.78
2022-11-05T05:18:42.214Z,94843.41
2022-11-05T05:21:53.205Z,94845.47
2022-11-05T05:25:01.548Z,94860.44
2022-11-05T05:28:09.839Z,94857.97
2022-11-05T05:31:18.107Z,94860.78
2022-11-05T05:34:27.729Z,94859.13
2022-11-05T05:37:35.997Z,94864.44
2022-11-05T05:40:44.411Z,94859.25
2022-11-05T05:43:52.626Z,94864.19
2022-11-05T05:47:00.905Z,94863.50
2022-11-05T05:50:10.724Z,94868.78
2022-11-05T05:53:18.990Z,94878.34
2022-11-05T05:56:27.283Z,94879.31
2022-11-05T05:59:35.660Z,94881.94
2022-11-05T06:02:44.020Z,94879.66
2022-11-05T06:05:53.684Z,94881.13
2022-11-05T06:09:02.089Z,94883.13
2022-11-05T06:12:10.381Z,94880.59
2022-11-05T06:15:19.083Z,94892.88
2022-11-05T06:18:27.606Z,94890.81
2022-11-05T06:21:37.707Z,94894.94
2022-11-05T06:24:46.067Z,94911.91
2022-11-05T06:27:55.999Z,94907.44
2022-11-05T06:31:05.476Z,94917.69
2022-11-05T06:34:14.127Z,94922.47
2022-11-05T06:37:24.177Z,94924.13
2022-11-05T06:40:32.536Z,94932.59
2022-11-05T06:43:41.140Z,94936.13
2022-11-05T06:46:49.953Z,94933.78
2022-11-05T06:49:58.201Z,94938.28
2022-11-05T06:53:08.207Z,94939.88
2022-11-05T06:56:16.620Z,94953.44
2022-11-05T06:59:24.806Z,94953.78
2022-11-05T07:02:33.117Z,94958.22
2022-11-05T07:05:47.330Z,94966.94
2022-11-05T07:08:56.970Z,94973.94
2022-11-05T07:12:05.680Z,94979.75
2022-11-05T07:15:14.427Z,94986.34
2022-11-05T07:18:22.946Z,94995.75
2022-11-05T07:21:31.154Z,94996.59
2022-11-05T07:24:40.804Z,95003.47
2022-11-05T07:27:48.996Z,95008.88
2022-11-05T07:30:59.398Z,95008.38
2022-11-05T07:34:07.620Z,95009.38
2022-11-05T07:37:16.773Z,95001.56
2022-11-05T07:40:29.193Z,95007.28
2022-11-05T07:43:37.431Z,95006.72
2022-11-05T07:46:45.631Z,95010.22
2022-11-05T07:49:54.039Z,95009.00
2022-11-05T07:53:03.769Z,95008.03
2022-11-05T07:56:13.516Z,95013.09
2022-11-05T07:59:21.857Z,95020.97
2022-11-05T08:02:30.272Z,95026.47
2022-11-05T08:05:43.254Z,95024.41
2022-11-05T08:08:51.754Z,95020.28
2022-11-05T08:12:03.082Z,95025.06
2022-11-05T08:15:11.947Z,95025.25
2022-11-05T08:18:20.159Z,95032.94
2022-11-05T08:21:28.403Z,95031.56
2022-11-05T08:24:37.631Z,95029.03
2022-11-05T08:27:47.234Z,95028.75
2022-11-05T08:30:57.758Z,95028.84
2022-11-05T08:34:05.873Z,95031.94
2022-11-05T08:37:14.205Z,95036.44
2022-11-05T08:40:22.411Z,95024.91
2022-11-05T08:43:32.039Z,95031.13
2022-11-05T08:46:41.799Z,95029.84
2022-11-05T08:49:50.288Z,95031.66
2022-11-05T08:52:58.745Z,95035.09
2022-11-05T08:56:07.649Z,95040.00
2022-11-05T08:59:17.330Z,95038.97
2022-11-05T09:02:27.091Z,95037.44
2022-11-05T09:05:38.770Z,95037.03
2022-11-05T09:08:47.017Z,95035.50
2022-11-05T09:12:11.702Z,95047.72
2022-11-05T09:15:23.295Z,95044.06
2022-11-05T09:18:32.032Z,95043.28
2022-11-05T09:21:40.333Z,95041.47
2022-11-05T09:24:48.502Z,95055.00
2022-11-05T09:28:15.983Z,95045.53
2022-11-05T09:31:26.380Z,95060.22
2022-11-05T09:34:34.898Z,95059.97
2022-11-05T09:37:43.054Z,95060.63
2022-11-05T09:41:00.542Z,95059.28
2022-11-05T09:44:17.003Z,95059.69
2022-11-05T09:47:32.399Z,95063.41
2022-11-05T09:50:45.159Z,95067.72
2022-11-05T09:53:54.202Z,95062.16
2022-11-05T09:57:07.613Z,95064.88
2022-11-05T10:00:17.693Z,95066.72
2022-11-05T10:03:31.103Z,95071.06
2022-11-05T10:06:47.850Z,95076.50
2022-11-05T10:10:02.626Z,95082.81
2022-11-05T10:13:25.121Z,95083.16
2022-11-05T10:16:38.471Z,95081.53
2022-11-05T10:19:54.659Z,95089.88
2022-11-05T10:23:11.928Z,95088.66
2022-11-05T10:26:26.929Z,95088.66
2022-11-05T10:29:36.809Z,95097.41
2022-11-05T10:32:47.782Z,95092.59
2022-11-05T10:36:05.087Z,95091.81
2022-11-05T10:39:17.427Z,95104.47
2022-11-05T10:42:55.964Z,95105.97
2022-11-05T10:46:25.536Z,95106.84
2022-11-05T10:49:55.975Z,95114.84
2022-11-05T10:53:16.207Z,95115.59
2022-11-05T10:56:35.775Z,95104.84
2022-11-05T10:59:44.085Z,95104.13
2022-11-05T11:02:56.751Z,95104.34
2022-11-05T11:06:16.132Z,95105.03
2022-11-05T11:09:29.920Z,95108.91
2022-11-05T11:12:44.267Z,95124.13
2022-11-05T11:15:53.094Z,95111.28
2022-11-05T11:19:03.200Z,95120.41
2022-11-05T11:22:29.035Z,95121.66
2022-11-05T11:25:48.474Z,95118.41
2022-11-05T11:29:01.651Z,95113.78
2022-11-05T11:32:16.254Z,95112.16
2022-11-05T11:35:26.752Z,95112.44
2022-11-05T11:38:37.636Z,95108.47
2022-11-05T11:41:54.081Z,95117.72
2022-11-05T11:45:08.530Z,95118.03
2022-11-05T11:48:22.807Z,95117.91
2022-11-05T11:51:36.661Z,95118.63
2022-11-05T11:54:46.239Z,95113.91
2022-11-05T11:58:07.947Z,95113.25
2022-11-05T12:02:05.608Z,95114.53
2022-11-05T12:05:33.942Z,95120.00
2022-11-05T12:08:59.317Z,95123.97
2022-11-05T12:12:19.245Z,95119.28
2022-11-05T12:15:50.260Z,95120.00
2022-11-05T12:19:14.631Z,95122.25
2022-11-05T12:22:37.594Z,95126.06
2022-11-05T12:25:56.307Z,95120.59
2022-11-05T12:29:36.127Z,95127.31
2022-11-05T12:33:16.426Z,95130.47
2022-11-05T12:36:48.486Z,95131.03
2022-11-05T12:40:34.007Z,95134.00
2022-11-05T12:44:02.939Z,95135.81
2022-11-05T12:47:43.019Z,95137.41
2022-11-05T12:51:04.051Z,95146.22
2022-11-05T12:54:27.869Z,95143.47
2022-11-05T12:57:42.728Z,95144.34
2022-11-05T13:01:00.381Z,95144.16
2022-11-05T13:04:20.387Z,95147.81
2022-11-05T13:07:35.686Z,95150.22
2022-11-05T13:10:51.940Z,95145.94
2022-11-05T13:14:11.056Z,95148.59
2022-11-05T13:17:24.232Z,95151.44
2022-11-05T13:20:38.989Z,95152.69
2022-11-05T13:23:55.806Z,95155.34
2022-11-05T13:27:29.033Z,95158.66
2022-11-05T13:30:44.711Z,95155.38
2022-11-05T13:33:55.780Z,95163.53
2022-11-05T13:37:25.532Z,95161.44
2022-11-05T13:40:49.241Z,95167.19
2022-11-05T13:44:23.990Z,95165.06
2022-11-05T13:48:12.724Z,95169.88
2022-11-05T13:51:44.404Z,95167.78
2022-11-05T13:55:50.863Z,95167.06
2022-11-05T13:59:28.860Z,95169.91
2022-11-05T14:02:44.461Z,95180.41
2022-11-05T14:06:00.486Z,95172.78
2022-11-05T14:09:12.853Z,95176.53
2022-11-05T14:12:28.165Z,95176.28
2022-11-05T14:15:37.343Z,95179.22
2022-11-05T14:18:49.255Z,95188.16
2022-11-05T14:21:59.165Z,95190.38
2022-11-05T14:26:03.103Z,95190.69
2022-11-05T14:29:40.795Z,95190.28
2022-11-05T14:32:53.653Z,95185.72
2022-11-05T14:36:34.131Z,95190.88
2022-11-05T14:39:44.656Z,95195.53
2022-11-05T14:42:58.494Z,95201.69
2022-11-05T14:46:09.124Z,95205.53
2022-11-05T14:49:24.008Z,95201.22
2022-11-05T14:52:34.236Z,95196.91
2022-11-05T14:55:45.853Z,95202.22
2022-11-05T15:00:02.108Z,95208.38
2022-11-05T15:04:04.485Z,95219.34
2022-11-05T15:07:34.812Z,95219.72
2022-11-05T15:10:46.709Z,95210.06
2022-11-05T15:14:06.407Z,95202.94
2022-11-05T15:17:23.858Z,95214.91
2022-11-05T15:20:40.837Z,95222.81
2022-11-05T15:23:54.164Z,95219.06
2022-11-05T15:27:16.116Z,95227.47
2022-11-05T15:30:26.000Z,95227.97
2022-11-05T15:33:34.898Z,95230.72
2022-11-05T15:36:53.791Z,95224.84
2022-11-05T15:40:02.398Z,95236.91
2022-11-05T15:43:19.602Z,95232.44
2022-11-05T15:46:30.891Z,95245.00
2022-11-05T15:49:44.774Z,95237.88
2022-11-05T15:53:04.809Z,95251.25
2022-11-05T15:56:29.745Z,95257.16
2022-11-05T15:59:39.351Z,95254.44
2022-11-05T16:02:56.990Z,95260.56
2022-11-05T16:06:10.936Z,95257.91
2022-11-05T16:09:28.107Z,95265.31
2022-11-05T16:12:37.873Z,95272.59
2022-11-05T16:15:56.802Z,95264.59
2022-11-05T16:19:40.505Z,95263.06
2022-11-05T16:22:52.747Z,95275.19
2022-11-05T16:26:02.561Z,95281.19
2022-11-05T16:29:17.192Z,95271.94
2022-11-05T16:32:30.989Z,95282.69
2022-11-05T16:35:49.091Z,95290.66
2022-11-05T16:38:57.539Z,95290.00
2022-11-05T16:42:48.498Z,95300.81
2022-11-05T16:46:01.476Z,95297.84
2022-11-05T16:49:13.009Z,95302.09
2022-11-05T16:52:21.444Z,95303.06
2022-11-05T16:55:32.213Z,95311.69
2022-11-05T16:58:44.711Z,95302.59
2022-11-05T17:01:55.993Z,95308.31
2022-11-05T17:05:04.698Z,95313.50
2022-11-05T17:08:13.316Z,95306.25
2022-11-05T17:11:22.881Z,95315.88
2022-11-05T17:14:32.721Z,95315.97
2022-11-05T17:17:41.380Z,95319.84
2022-11-05T17:20:52.874Z,95321.63
2022-11-05T17:24:01.450Z,95327.44
2022-11-05T17:27:09.909Z,95324.66
2022-11-05T17:30:20.098Z,95331.41
2022-11-05T17:33:28.783Z,95343.38
2022-11-05T17:36:37.495Z,95346.56
2022-11-05T17:39:45.885Z,95348.84
2022-11-05T17:42:54.278Z,95349.50
2022-11-05T17:46:10.347Z,95363.44
2022-11-05T17:49:18.638Z,95369.03
2022-11-05T17:52:28.478Z,95355.84
2022-11-05T17:55:36.970Z,95361.94
2022-11-05T17:58:45.664Z,95357.31
2022-11-05T18:01:55.554Z,95362.59
2022-11-05T18:05:04.166Z,95366.41
2022-11-05T18:08:13.284Z,95369.19
2022-11-05T18:11:21.772Z,95369.03
2022-11-05T18:14:30.084Z,95377.63
2022-11-05T18:17:40.119Z,95376.66
2022-11-05T18:20:48.498Z,95391.03
2022-11-05T18:23:56.699Z,95381.59
2022-11-05T18:27:05.268Z,95385.88
2022-11-05T18:30:15.853Z,95395.50
2022-11-05T18:33:31.917Z,95384.75
2022-11-05T18:36:46.036Z,95382.44
2022-11-05T18:39:55.275Z,95388.53
2022-11-05T18:43:03.699Z,95389.19
2022-11-05T18:46:29.380Z,95394.19
2022-11-05T18:49:42.293Z,95399.13
2022-11-05T18:52:50.498Z,95394.19
2022-11-05T18:55:58.797Z,95395.00
2022-11-05T18:59:35.221Z,95388.69
2022-11-05T19:02:36.098Z,95392.69
2022-11-05T19:05:46.026Z,95394.69
2022-11-05T19:08:56.675Z,95387.25
2022-11-05T19:12:07.404Z,95389.69
2022-11-05T19:15:15.724Z,95396.84
2022-11-05T19:18:24.839Z,95396.50
2022-11-05T19:21:34.557Z,95405.13
2022-11-05T19:24:43.061Z,95395.50
2022-11-05T19:27:51.457Z,95400.13
2022-11-05T19:30:59.751Z,95399.81
2022-11-05T19:34:08.322Z,95398.19
2022-11-05T19:37:19.199Z,95401.31
2022-11-05T19:40:27.451Z,95397.84
2022-11-05T19:43:36.334Z,95404.28
2022-11-05T19:46:44.970Z,95403.66
2022-11-05T19:49:53.220Z,95399.19
2022-11-05T19:53:03.233Z,95410.25
2022-11-05T19:56:15.104Z,95415.41
2022-11-05T19:59:23.757Z,95409.28
2022-11-05T20:02:32.368Z,95414.72
2022-11-05T20:05:40.828Z,95413.38
2022-11-05T20:09:20.102Z,95413.53
2022-11-05T20:12:19.446Z,95423.34
2022-11-05T20:15:28.072Z,95423.34
2022-11-05T20:18:36.414Z,95427.31
2022-11-05T20:21:51.944Z,95427.81
2022-11-05T20:25:02.875Z,95422.19
2022-11-05T20:28:11.321Z,95428.00
2022-11-05T20:31:23.502Z,95416.72
2022-11-05T20:34:34.196Z,95417.88
2022-11-05T20:37:42.785Z,95417.41
2022-11-05T20:40:52.610Z,95417.72
2022-11-05T20:44:01.565Z,95417.41
2022-11-05T20:47:09.883Z,95422.84
2022-11-05T20:50:18.429Z,95418.72
2022-11-05T20:53:26.912Z,95427.31
2022-11-05T20:56:36.599Z,95427.84
2022-11-05T20:59:44.922Z,95432.78
2022-11-05T21:02:53.358Z,95437.91
2022-11-05T21:06:05.672Z,95433.78
2022-11-05T21:09:14.141Z,95435.09
2022-11-05T21:12:24.045Z,95436.91
2022-11-05T21:15:32.729Z,95434.59
2022-11-05T21:18:41.635Z,95428.00
2022-11-05T21:21:49.823Z,95431.94
2022-11-05T21:24:58.165Z,95428.81
2022-11-05T21:28:09.366Z,95432.31
2022-11-05T21:31:17.825Z,95431.13
2022-11-05T21:34:26.561Z,95435.44
2022-11-05T21:37:34.798Z,95426.50
2022-11-05T21:40:43.775Z,95419.06
2022-11-05T21:43:53.687Z,95424.38
2022-11-05T21:47:04.558Z,95427.31
2022-11-05T21:50:15.201Z,95424.00
2022-11-05T21:53:43.583Z,95419.69
2022-11-05T21:57:11.024Z,95425.50
2022-11-05T22:00:20.955Z,95425.16
2022-11-05T22:03:29.689Z,95419.84
2022-11-05T22:06:37.953Z,95419.66
2022-11-05T22:09:46.384Z,95418.63
2022-11-05T22:12:55.655Z,95417.78
2022-11-05T22:16:05.935Z,95416.06
2022-11-05T22:19:17.450Z,95423.34
2022-11-05T22:22:25.883Z,95419.53
2022-11-05T22:25:34.133Z,95414.88
2022-11-05T22:28:42.371Z,95421.47
2022-11-05T22:31:52.028Z,95423.13
2022-11-05T22:35:00.313Z,95425.97
2022-11-05T22:38:08.737Z,95424.97
2022-11-05T22:41:22.989Z,95422.06
2022-11-05T22:44:31.400Z,95426.41
2022-11-05T22:47:42.699Z,95418.03
2022-11-05T22:50:51.020Z,95423.25
2022-11-05T22:54:00.367Z,95413.28
2022-11-05T22:57:08.682Z,95419.31
2022-11-05T23:00:19.085Z,95417.47
2022-11-05T23:03:30.438Z,95416.44
2022-11-05T23:06:56.399Z,95411.47
2022-11-05T23:10:23.000Z,95414.13
2022-11-05T23:13:31.363Z,95417.56
2022-11-05T23:16:58.094Z,95420.75
2022-11-05T23:20:31.961Z,95421.38
2022-11-05T23:23:57.805Z,95412.78
2022-11-05T23:27:06.358Z,95408.88
2022-11-05T23:30:18.497Z,95410.22
2022-11-05T23:33:26.182Z,95399.94
2022-11-05T23:36:53.210Z,95410.50
2022-11-05T23:40:01.778Z,95410.16
2022-11-05T23:43:29.768Z,95402.84
2022-11-05T23:46:55.855Z,95406.47
2022-11-05T23:50:04.344Z,95412.22
2022-11-05T23:53:14.709Z,95419.63
2022-11-05T23:56:23.472Z,95414.66
2022-11-05T23:59:33.474Z,95414.81
